createdAt,value
2022-09-11T00:04:36.279Z,17.90
2022-09-11T00:09:39.228Z,15.23
2022-09-11T00:14:42.216Z,18.20
2022-09-11T00:19:46.432Z,16.20
2022-09-11T00:24:50.087Z,17.15
2022-09-11T00:29:54.288Z,19.23
2022-09-11T00:34:58.372Z,18.77
2022-09-11T00:40:01.265Z,22.75
2022-09-11T00:45:07.397Z,23.85
2022-09-11T00:50:14.988Z,26.27
2022-09-11T00:55:23.069Z,26.63
2022-09-11T01:00:25.920Z,25.65
2022-09-11T01:05:34.530Z,26.85
2022-09-11T01:10:46.389Z,28.55
2022-09-11T01:16:04.151Z,25.73
2022-09-11T01:21:32.540Z,29.63
2022-09-11T01:26:48.779Z,28.70
2022-09-11T01:32:00.436Z,34.58
2022-09-11T01:37:08.801Z,36.00
2022-09-11T01:42:16.844Z,36.28
2022-09-11T01:47:22.183Z,38.78
2022-09-11T01:52:40.985Z,39.42
2022-09-11T01:57:48.816Z,42.97
2022-09-11T02:03:00.579Z,40.40
2022-09-11T02:08:09.529Z,41.22
2022-09-11T02:18:26.929Z,47.33
2022-09-11T02:23:29.748Z,48.30
2022-09-11T02:28:32.729Z,50.45
2022-09-11T02:33:38.647Z,48.78
2022-09-11T02:38:52.638Z,49.95
2022-09-11T02:44:05.218Z,48.42
2022-09-11T02:49:20.645Z,48.97
2022-09-11T02:54:30.289Z,50.13
2022-09-11T02:59:38.152Z,50.75
2022-09-11T03:04:43.330Z,49.70
2022-09-11T03:09:46.965Z,49.08
2022-09-11T03:14:57.025Z,49.25
2022-09-11T03:20:01.343Z,49.25
2022-09-11T03:25:06.610Z,50.83
2022-09-11T03:30:10.532Z,52.20
2022-09-11T03:35:16.377Z,53.15
2022-09-11T03:40:20.210Z,48.67
2022-09-11T03:45:23.219Z,50.97
2022-09-11T03:50:27.771Z,51.85
2022-09-11T03:55:31.670Z,51.70
2022-09-11T04:00:37.153Z,50.60
2022-09-11T04:05:42.060Z,51.10
2022-09-11T04:10:44.948Z,50.25
2022-09-11T04:15:48.052Z,53.35
2022-09-11T04:20:52.396Z,53.65
2022-09-11T04:25:56.324Z,54.95
2022-09-11T04:31:05.090Z,58.60
2022-09-11T04:36:14.213Z,54.38
2022-09-11T04:41:17.815Z,59.83
2022-09-11T04:46:20.739Z,53.83
2022-09-11T04:51:29.123Z,54.63
2022-09-11T04:56:37.797Z,56.67
2022-09-11T05:01:41.092Z,58.00
2022-09-11T05:06:48.214Z,56.00
2022-09-11T05:11:52.553Z,55.15
2022-09-11T05:16:57.399Z,53.33
2022-09-11T05:22:04.379Z,53.15
2022-09-11T05:27:09.803Z,53.47
2022-09-11T05:32:14.750Z,50.00
2022-09-11T05:37:19.851Z,49.47
2022-09-11T05:42:24.742Z,43.80
2022-09-11T05:47:30.511Z,38.20
2022-09-11T05:52:35.195Z,38.50
2022-09-11T05:57:39.087Z,34.63
2022-09-11T06:02:42.517Z,24.00
2022-09-11T06:07:46.784Z,20.55
2022-09-11T06:12:49.848Z,22.60
2022-09-11T06:17:52.850Z,20.92
2022-09-11T06:22:57.214Z,20.95
2022-09-11T06:28:02.622Z,29.25
2022-09-11T06:33:06.376Z,31.23
2022-09-11T06:38:11.923Z,30.92
2022-09-11T06:43:15.548Z,30.60
2022-09-11T06:48:20.148Z,31.75
2022-09-11T06:53:24.822Z,32.42
2022-09-11T06:58:31.007Z,31.65
2022-09-11T07:03:34.455Z,29.75
2022-09-11T07:08:42.756Z,29.55
2022-09-11T07:13:45.818Z,27.42
2022-09-11T07:18:49.994Z,27.88
2022-09-11T07:24:00.501Z,24.73
2022-09-11T07:29:09.608Z,26.38
2022-09-11T07:34:12.803Z,27.08
2022-09-11T07:39:17.003Z,28.55
2022-09-11T07:44:26.681Z,27.80
2022-09-11T07:49:29.734Z,29.05
2022-09-11T07:54:34.914Z,28.30
2022-09-11T07:59:39.410Z,28.48
2022-09-11T08:04:43.502Z,26.05
2022-09-11T08:09:56.076Z,26.83
2022-09-11T08:15:11.322Z,27.08
2022-09-11T08:20:14.681Z,26.63
2022-09-11T08:25:19.208Z,26.00
2022-09-11T08:30:22.949Z,26.05
2022-09-11T08:35:26.178Z,25.50
2022-09-11T08:40:31.835Z,24.92
2022-09-11T08:45:37.431Z,23.30
2022-09-11T08:50:44.400Z,21.65
2022-09-11T08:56:00.483Z,20.92
2022-09-11T09:01:12.309Z,20.13
2022-09-11T09:06:34.341Z,20.90
2022-09-11T09:11:49.006Z,19.30
2022-09-11T09:17:00.465Z,17.77
2022-09-11T09:22:13.385Z,18.50
2022-09-11T09:27:28.271Z,15.57
2022-09-11T09:32:38.491Z,18.23
2022-09-11T09:37:41.875Z,16.45
2022-09-11T09:43:13.076Z,14.65
2022-09-11T09:48:16.333Z,14.30
2022-09-11T09:53:29.498Z,13.98
2022-09-11T09:58:38.100Z,12.35
2022-09-11T10:03:40.944Z,12.68
2022-09-11T10:08:44.507Z,13.68
2022-09-11T10:13:57.227Z,13.15
2022-09-11T10:19:00.432Z,12.95
2022-09-11T10:24:20.567Z,11.48
2022-09-11T10:29:30.051Z,10.27
2022-09-11T10:34:37.944Z,9.32
2022-09-11T10:39:42.192Z,9.10
2022-09-11T10:44:48.446Z,9.35
2022-09-11T10:49:51.695Z,9.20
2022-09-11T10:55:03.001Z,8.73
2022-09-11T11:00:17.200Z,9.35
2022-09-11T11:05:27.150Z,10.98
2022-09-11T11:10:42.592Z,10.50
2022-09-11T11:15:58.294Z,10.43
2022-09-11T11:21:15.112Z,11.02
2022-09-11T11:26:32.377Z,11.15
2022-09-11T11:31:59.440Z,10.95
2022-09-11T11:37:07.229Z,11.05
2022-09-11T11:42:14.353Z,8.63
2022-09-11T11:47:25.348Z,9.32
2022-09-11T11:52:40.028Z,7.93
2022-09-11T11:57:48.209Z,9.57
2022-09-11T12:02:59.138Z,9.68
2022-09-11T12:08:02.529Z,8.35
2022-09-11T12:13:12.400Z,8.50
2022-09-11T12:18:25.277Z,7.78
2022-09-11T12:23:35.485Z,7.65
2022-09-11T12:28:38.792Z,8.00
2022-09-11T12:33:56.637Z,7.03
2022-09-11T12:39:04.402Z,6.72
2022-09-11T12:44:30.952Z,5.32
2022-09-11T12:49:37.688Z,5.78
2022-09-11T12:54:44.463Z,6.38
2022-09-11T12:59:54.321Z,6.32
2022-09-11T13:04:59.068Z,5.90
2022-09-11T13:10:08.051Z,5.28
2022-09-11T13:15:52.417Z,5.18
2022-09-11T13:21:02.122Z,4.57
2022-09-11T13:26:07.854Z,5.30
2022-09-11T13:31:19.388Z,4.97
2022-09-11T13:36:26.132Z,4.75
2022-09-11T13:41:31.737Z,4.63
2022-09-11T13:46:35.266Z,5.03
2022-09-11T13:51:42.123Z,4.60
2022-09-11T13:56:48.202Z,4.95
2022-09-11T14:01:56.642Z,4.50
2022-09-11T14:07:01.179Z,4.25
2022-09-11T14:12:04.681Z,4.70
2022-09-11T14:17:13.866Z,4.25
2022-09-11T14:22:25.494Z,4.00
2022-09-11T14:27:37.767Z,3.40
2022-09-11T14:32:40.864Z,2.83
2022-09-11T14:37:47.051Z,2.53
2022-09-11T14:42:50.240Z,2.90
2022-09-11T14:47:53.816Z,2.80
2022-09-11T14:52:58.172Z,2.20
2022-09-11T14:58:01.900Z,2.28
2022-09-11T15:03:04.835Z,2.80
2022-09-11T15:08:10.356Z,2.20
2022-09-11T15:13:13.324Z,2.33
2022-09-11T15:18:18.589Z,2.95
2022-09-11T15:23:23.692Z,2.85
2022-09-11T15:28:29.124Z,2.50
2022-09-11T15:33:34.018Z,3.30
2022-09-11T15:38:38.485Z,3.58
2022-09-11T15:43:41.615Z,2.60
2022-09-11T15:48:44.652Z,2.63
2022-09-11T15:53:49.247Z,2.58
2022-09-11T15:58:52.418Z,3.17
2022-09-11T16:03:56.654Z,2.47
2022-09-11T16:09:04.459Z,3.50
2022-09-11T16:14:07.883Z,2.50
2022-09-11T16:19:11.046Z,2.60
2022-09-11T16:24:15.907Z,3.45
2022-09-11T16:29:20.372Z,4.07
2022-09-11T16:34:24.842Z,4.70
2022-09-11T16:39:29.307Z,5.28
2022-09-11T16:44:33.667Z,5.55
2022-09-11T16:49:50.434Z,6.78
2022-09-11T16:55:01.272Z,6.07
2022-09-11T17:00:06.117Z,6.38
2022-09-11T17:05:10.275Z,7.30
2022-09-11T17:10:14.537Z,7.97
2022-09-11T17:15:19.387Z,7.82
2022-09-11T17:20:22.250Z,6.95
2022-09-11T17:25:26.775Z,6.15
2022-09-11T17:30:29.719Z,4.90
2022-09-11T17:35:32.743Z,5.63
2022-09-11T17:40:39.080Z,6.05
2022-09-11T17:45:42.264Z,5.43
2022-09-11T17:50:45.227Z,6.00
2022-09-11T17:55:49.376Z,5.60
2022-09-11T18:00:52.346Z,5.63
2022-09-11T18:05:55.305Z,6.00
2022-09-11T18:11:01.635Z,6.13
2022-09-11T18:16:07.549Z,6.57
2022-09-11T18:21:14.476Z,6.95
2022-09-11T18:26:24.650Z,6.32
2022-09-11T18:31:30.099Z,6.95
2022-09-11T18:36:33.692Z,8.25
2022-09-11T18:41:37.934Z,7.70
2022-09-11T18:46:41.155Z,7.53
2022-09-11T18:51:44.138Z,8.18
2022-09-11T18:56:49.153Z,9.20
2022-09-11T19:01:52.091Z,8.20
2022-09-11T19:06:55.063Z,7.15
2022-09-11T19:12:00.336Z,6.78
2022-09-11T19:17:04.325Z,7.57
2022-09-11T19:22:07.221Z,6.88
2022-09-11T19:27:11.946Z,7.22
2022-09-11T19:32:15.117Z,7.25
2022-09-11T19:37:20.045Z,6.88
2022-09-11T19:42:24.853Z,7.38
2022-09-11T19:47:28.975Z,7.82
2022-09-11T19:52:33.196Z,8.65
2022-09-11T19:57:37.529Z,7.97
2022-09-11T20:02:40.476Z,8.48
2022-09-11T20:07:43.684Z,9.02
2022-09-11T20:12:48.602Z,8.65
2022-09-11T20:17:51.472Z,8.63
2022-09-11T20:22:55.577Z,8.95
2022-09-11T20:28:01.803Z,8.27
2022-09-11T20:33:04.815Z,8.00
2022-09-11T20:38:07.661Z,9.02
2022-09-11T20:43:11.962Z,11.00
2022-09-11T20:48:14.807Z,10.93
2022-09-11T20:53:17.773Z,10.20
2022-09-11T20:58:22.155Z,9.82
2022-09-11T21:03:25.480Z,10.30
2022-09-11T21:08:28.269Z,9.38
2022-09-11T21:13:35.424Z,11.70
2022-09-11T21:18:39.416Z,12.15
2022-09-11T21:23:42.576Z,11.57
2022-09-11T21:28:46.808Z,12.85
2022-09-11T21:33:49.600Z,13.52
2022-09-11T21:38:52.647Z,14.00
2022-09-11T21:43:57.045Z,12.40
2022-09-11T21:48:59.931Z,12.27
2022-09-11T21:54:03.047Z,14.98
2022-09-11T21:59:07.491Z,14.60
2022-09-11T22:04:10.391Z,13.57
2022-09-11T22:09:13.243Z,13.27
2022-09-11T22:14:20.296Z,14.32
2022-09-11T22:19:23.363Z,15.27
2022-09-11T22:24:26.257Z,12.68
2022-09-11T22:29:30.503Z,11.88
2022-09-11T22:34:34.500Z,11.00
2022-09-11T22:39:37.465Z,11.88
2022-09-11T22:44:42.098Z,11.63
2022-09-11T22:49:44.903Z,13.50
2022-09-11T22:54:47.865Z,14.07
2022-09-11T22:59:52.152Z,14.18
2022-09-11T23:05:08.871Z,15.05
2022-09-11T23:10:12.227Z,14.80
2022-09-11T23:15:16.822Z,14.10
2022-09-11T23:20:19.838Z,13.10
2022-09-11T23:25:22.691Z,13.82
2022-09-11T23:30:26.869Z,15.35
2022-09-11T23:35:29.788Z,13.40
2022-09-11T23:40:34.016Z,13.82
2022-09-11T23:45:38.512Z,12.18
2022-09-11T23:50:41.808Z,13.40
2022-09-11T23:55:48.005Z,14.23
